Terminal Aerodrome Forecast
Issued by NWS Twin Cities, MN

Home | Current Version | Previous Version | Text Only | Print | Product List | Glossary On
Versions: 1 2 3 4 5 6 7 8 9 10 11 12 13
000
FTUS43 KMPX 191139
TAFSTC
TAF
KSTC 191139Z 1912/2012 16010KT 6SM -RA BR OVC015
     FM191400 22011G18KT P6SM VCSH OVC010
     FM191600 28012G21KT P6SM OVC016
     FM191800 32014G22KT P6SM SCT020 BKN050
     FM200100 32011KT P6SM BKN100
     FM201000 31014G20KT P6SM OVC050=

USA.gov is the U.S. government's official web portal to all federal, state and local government web resources and services.